Eastsound, WA

1:03 AM PDT on August 21, 2014 (GMT -0700)
Whidbey Island Naval Air Station | Change Station
CLOSE
Current Station
Airport
Location: Whidbey Island,
Elevation: 46 ft
Nearby Weather Stations

Elev 46 ft 48.35 °N, 122.66 °W | Updated 7 minutes ago

Partly Cloudy
Partly Cloudy
55 °F
Feels Like 55 °F
N
4
Wind Variable Wind from SSE

Today
High -- | Low -- °F
--% Chance of Precip.
Yesterday
High -- | Low -- °F
Precip. -- in
6:13 AM 8:15 PM
Waning Crescent, 16% visible
Pressure 30.03 in
Visibility 10.0 miles
Clouds Few 1200 ft
Few 6500 ft
Dew Point 50 °F
Humidity 83%
Rainfall 0.00 in
Snow Depth Not available.
UV 0 out of 12
Pollen 2.70 out of 12
Air Quality Not available.
Flu Activity Not available.
METAR KNUW 210756Z 16003KT 10SM FEW012 FEW065 13/10 A3002 RMK AO2 SLP168 T01280100 $

More Conditions Fewer Conditions

Pressure 30.03 in
Visibility 10.0 miles
Clouds Few 1200 ft
Few 6500 ft
Dew Point 50 °F
Humidity 83%
Rainfall 0.00 in
Snow Depth Not available.
UV 0 out of 12
Pollen 2.70 out of 12
Air Quality Not available.
Flu Activity Not available.
METAR KNUW 210756Z 16003KT 10SM FEW012 FEW065 13/10 A3002 RMK AO2 SLP168 T01280100 $

More Conditions Fewer Conditions

10-Day Weather Forecast

Almanac

Astronomy

Aug. 21, 2014 Rise Set
Actual Time 6:13 AM PDT 8:15 PM PDT
Civil Twilight 5:39 AM PDT 8:48 PM PDT
Nautical Twilight 4:57 AM PDT 9:30 PM PDT
Astronomical Twilight 4:09 AM PDT 10:17 PM PDT
Moon 2:40 AM PDT 5:54 PM PDT
Length of Visible Light 15h 09m
Length of Day
14h 01m
Tomorrow will be 3m 19s shorter.
Waning Crescent, 16% of the Moon is Illuminated
Today
Waning Crescent
Aug 25
New
Sep 2
First Quarter
Sep 8
Full
Sep 15
Last Quarter

Today's Extremes

State Highs State Lows

Community

WunderPhotos

Upload Photos

1,745,858 photos uploaded!

Nearby

Snow Depth

Station Depth Elevation
Mf Nooksack 0 in 4980 ft
Dungeness 4 in 4100 ft
Mount Crag 0 in 4050 ft
Alpine Meadows 0 in 3500 ft
Park Creek Ridge 0 in 4600 ft

Earthquake Activity

City Distance Mag. Time & Date
No recent earthquake activity has been reported nearby.
Minimum magnitude displayed is 2.5.

Coastal Water Temperatures

Place Temperature
Port Townsend, WA 53.1 °F
Friday Harbor, WA 55.0 °F
Port Angeles, WA 54.0 °F

Nearby Weather Stations